createdAt,value
2023-04-16T00:01:03.977Z,9.23
2023-04-16T00:03:30.877Z,4.75
2023-04-16T00:05:57.743Z,9.23
2023-04-16T00:08:24.729Z,3.38
2023-04-16T00:10:53.502Z,8.23
2023-04-16T00:13:20.386Z,4.85
2023-04-16T00:15:47.170Z,4.55
2023-04-16T00:18:13.786Z,5.68
2023-04-16T00:20:40.572Z,5.47
2023-04-16T00:23:07.282Z,10.10
2023-04-16T00:25:33.966Z,4.10
2023-04-16T00:28:00.687Z,7.50
2023-04-16T00:30:27.427Z,5.38
2023-04-16T00:32:54.156Z,9.88
2023-04-16T00:35:20.931Z,7.00
2023-04-16T00:37:47.624Z,3.97
2023-04-16T00:40:14.396Z,3.13
2023-04-16T00:42:41.402Z,6.55
2023-04-16T00:45:08.999Z,6.57
2023-04-16T00:47:35.831Z,4.85
2023-04-16T00:50:04.505Z,7.72
2023-04-16T00:52:34.625Z,7.13
2023-04-16T00:55:01.564Z,4.75
2023-04-16T00:57:28.338Z,6.40
2023-04-16T00:59:56.433Z,4.60
2023-04-16T01:04:51.689Z,5.32
2023-04-16T01:09:44.895Z,6.15
2023-04-16T01:12:11.636Z,7.88
2023-04-16T01:14:38.416Z,6.93
2023-04-16T01:17:05.191Z,5.15
2023-04-16T01:19:31.876Z,4.90
2023-04-16T01:21:59.228Z,2.47
2023-04-16T01:24:25.915Z,7.55
2023-04-16T01:26:52.708Z,9.52
2023-04-16T01:29:19.476Z,5.60
2023-04-16T01:31:46.827Z,7.50
2023-04-16T01:34:26.585Z,10.90
2023-04-16T01:36:53.294Z,5.65
2023-04-16T01:39:19.954Z,6.10
2023-04-16T01:41:46.677Z,9.93
2023-04-16T01:44:13.349Z,12.70
2023-04-16T01:46:43.714Z,6.63
2023-04-16T01:49:10.833Z,7.85
2023-04-16T01:51:37.729Z,8.75
2023-04-16T01:54:04.601Z,4.32
2023-04-16T01:56:31.305Z,4.70
2023-04-16T01:58:57.984Z,6.85
2023-04-16T02:01:27.938Z,8.70
2023-04-16T02:03:55.514Z,5.65
2023-04-16T02:06:22.272Z,7.97
2023-04-16T02:08:49.160Z,5.90
2023-04-16T02:11:16.018Z,7.65
2023-04-16T02:13:43.185Z,10.68
2023-04-16T02:16:09.981Z,6.45
2023-04-16T02:19:11.959Z,7.53
2023-04-16T02:21:41.759Z,5.90
2023-04-16T02:26:35.819Z,7.93
2023-04-16T02:29:08.510Z,8.45
2023-04-16T02:31:41.548Z,10.13
2023-04-16T02:34:09.701Z,10.10
2023-04-16T02:36:36.645Z,9.23
2023-04-16T02:39:03.546Z,7.93
2023-04-16T02:41:30.520Z,6.18
2023-04-16T02:43:57.309Z,8.30
2023-04-16T02:46:24.297Z,10.70
2023-04-16T02:48:51.199Z,4.00
2023-04-16T02:51:17.831Z,10.10
2023-04-16T02:53:46.121Z,6.28
2023-04-16T02:56:13.436Z,4.55
2023-04-16T02:58:40.243Z,5.68
2023-04-16T03:01:07.139Z,7.05
2023-04-16T03:03:33.946Z,8.13
2023-04-16T03:06:00.649Z,5.22
2023-04-16T03:08:27.595Z,7.85
2023-04-16T03:10:54.296Z,7.93
2023-04-16T03:13:21.045Z,9.85
2023-04-16T03:15:50.808Z,8.30
2023-04-16T03:18:17.794Z,10.13
2023-04-16T03:20:44.541Z,9.75
2023-04-16T03:23:11.592Z,6.87
2023-04-16T03:25:40.565Z,6.22
2023-04-16T03:28:08.876Z,10.63
2023-04-16T03:30:35.933Z,9.48
2023-04-16T03:33:03.717Z,9.63
2023-04-16T03:35:30.452Z,10.88
2023-04-16T03:37:57.189Z,6.32
2023-04-16T03:40:24.006Z,9.43
2023-04-16T03:42:52.295Z,6.05
2023-04-16T03:45:19.076Z,7.32
2023-04-16T03:47:52.480Z,8.23
2023-04-16T03:50:21.960Z,8.75
2023-04-16T03:52:49.504Z,5.40
2023-04-16T03:55:17.498Z,9.07
2023-04-16T03:57:45.135Z,6.80
2023-04-16T04:00:14.311Z,7.65
2023-04-16T04:02:41.289Z,10.68
2023-04-16T04:05:14.733Z,9.30
2023-04-16T04:07:41.781Z,10.60
2023-04-16T04:10:09.365Z,11.43
2023-04-16T04:12:39.302Z,9.07
2023-04-16T04:15:06.608Z,8.30
2023-04-16T04:17:33.304Z,8.13
2023-04-16T04:20:01.884Z,10.32
2023-04-16T04:22:30.877Z,6.55
2023-04-16T04:24:57.575Z,7.13
2023-04-16T04:27:27.344Z,8.45
2023-04-16T04:29:54.103Z,5.78
2023-04-16T04:34:49.291Z,5.50
2023-04-16T04:37:16.028Z,4.25
2023-04-16T04:39:43.836Z,7.25
2023-04-16T04:42:11.586Z,7.63
2023-04-16T04:44:39.341Z,9.00
2023-04-16T04:47:06.586Z,7.20
2023-04-16T04:49:33.263Z,6.90
2023-04-16T04:52:00.055Z,8.65
2023-04-16T04:54:26.834Z,8.73
2023-04-16T04:56:53.744Z,9.55
2023-04-16T04:59:21.489Z,6.47
2023-04-16T05:01:49.015Z,6.80
2023-04-16T05:04:16.237Z,7.32
2023-04-16T05:06:43.311Z,8.65
2023-04-16T05:09:11.935Z,6.47
2023-04-16T05:11:39.310Z,6.65
2023-04-16T05:14:05.986Z,8.80
2023-04-16T05:16:32.719Z,6.15
2023-04-16T05:18:59.385Z,8.25
2023-04-16T05:21:26.505Z,7.65
2023-04-16T05:23:53.952Z,12.05
2023-04-16T05:26:20.822Z,13.95
2023-04-16T05:28:47.470Z,4.50
2023-04-16T05:31:14.311Z,9.43
2023-04-16T05:33:41.062Z,7.68
2023-04-16T05:36:07.813Z,10.40
2023-04-16T05:38:34.525Z,7.47
2023-04-16T05:41:01.189Z,5.57
2023-04-16T05:43:27.927Z,7.88
2023-04-16T05:45:54.616Z,6.60
2023-04-16T05:48:21.360Z,9.38
2023-04-16T05:50:49.234Z,5.03
2023-04-16T05:55:43.144Z,11.32
2023-04-16T05:58:09.817Z,5.75
2023-04-16T06:00:36.689Z,12.05
2023-04-16T06:03:03.771Z,8.27
2023-04-16T06:05:31.060Z,6.70
2023-04-16T06:07:57.772Z,6.03
2023-04-16T06:10:24.469Z,9.00
2023-04-16T06:12:51.268Z,10.68
2023-04-16T06:15:17.994Z,7.43
2023-04-16T06:17:44.662Z,8.70
2023-04-16T06:20:12.263Z,10.48
2023-04-16T06:22:39.002Z,9.00
2023-04-16T06:25:06.209Z,8.77
2023-04-16T06:27:32.851Z,8.48
2023-04-16T06:29:59.601Z,9.20
2023-04-16T06:32:26.503Z,9.48
2023-04-16T06:34:53.285Z,10.30
2023-04-16T06:37:19.934Z,13.68
2023-04-16T06:39:46.645Z,9.95
2023-04-16T06:42:13.410Z,10.35
2023-04-16T06:44:40.067Z,8.23
2023-04-16T06:47:06.789Z,8.73
2023-04-16T06:49:33.577Z,8.88
2023-04-16T06:52:00.378Z,10.88
2023-04-16T06:54:27.118Z,8.80
2023-04-16T06:56:53.758Z,12.23
2023-04-16T06:59:20.453Z,11.00
2023-04-16T07:01:47.369Z,9.52
2023-04-16T07:04:14.445Z,8.90
2023-04-16T07:06:41.225Z,11.97
2023-04-16T07:09:08.086Z,12.98
2023-04-16T07:11:35.562Z,11.50
2023-04-16T07:14:02.340Z,9.05
2023-04-16T07:16:29.017Z,8.50
2023-04-16T07:18:55.761Z,12.55
2023-04-16T07:21:22.642Z,11.60
2023-04-16T07:23:49.352Z,15.27
2023-04-16T07:26:16.077Z,12.48
2023-04-16T07:28:42.889Z,11.20
2023-04-16T07:31:09.574Z,9.90
2023-04-16T07:33:36.480Z,9.48
2023-04-16T07:36:03.225Z,10.10
2023-04-16T07:38:29.871Z,12.30
2023-04-16T07:40:56.997Z,13.02
2023-04-16T07:43:23.701Z,14.85
2023-04-16T07:45:50.601Z,14.82
2023-04-16T07:48:17.269Z,11.95
2023-04-16T07:50:43.984Z,12.70
2023-04-16T07:53:10.635Z,15.55
2023-04-16T07:55:37.406Z,14.05
2023-04-16T07:58:04.080Z,13.35
2023-04-16T08:00:30.767Z,15.18
2023-04-16T08:02:57.593Z,11.13
2023-04-16T08:05:24.479Z,15.32
2023-04-16T08:07:51.143Z,13.60
2023-04-16T08:10:17.922Z,12.88
2023-04-16T08:12:44.625Z,17.88
2023-04-16T08:15:11.605Z,14.68
2023-04-16T08:17:38.816Z,16.83
2023-04-16T08:20:06.474Z,17.88
2023-04-16T08:22:33.698Z,14.48
2023-04-16T08:25:00.631Z,16.42
2023-04-16T08:27:27.333Z,15.95
2023-04-16T08:29:54.106Z,22.25
2023-04-16T08:32:20.965Z,22.05
2023-04-16T08:34:47.800Z,21.92
2023-04-16T08:37:14.509Z,26.83
2023-04-16T08:39:41.378Z,19.88
2023-04-16T08:42:18.469Z,21.90
2023-04-16T08:44:49.930Z,23.98
2023-04-16T08:47:16.850Z,19.23
2023-04-16T08:49:46.161Z,15.13
2023-04-16T08:52:19.895Z,18.95
2023-04-16T08:54:57.382Z,21.92
2023-04-16T08:57:30.512Z,21.27
2023-04-16T08:59:58.297Z,20.65
2023-04-16T09:02:26.394Z,18.95
2023-04-16T09:04:54.012Z,20.58
2023-04-16T09:07:21.953Z,16.88
2023-04-16T09:14:49.522Z,18.60
2023-04-16T09:17:16.925Z,20.33
2023-04-16T09:19:44.244Z,14.25
2023-04-16T09:22:11.773Z,21.08
2023-04-16T09:24:38.817Z,23.33
2023-04-16T09:27:06.047Z,21.63
2023-04-16T09:29:39.228Z,18.20
2023-04-16T09:32:07.837Z,21.67
2023-04-16T09:34:35.955Z,21.50
2023-04-16T09:37:22.961Z,22.65
2023-04-16T09:40:01.047Z,21.02
2023-04-16T09:42:29.657Z,20.05
2023-04-16T09:44:59.384Z,21.25
2023-04-16T09:47:40.024Z,18.63
2023-04-16T09:50:09.608Z,29.27
2023-04-16T09:52:40.936Z,24.67
2023-04-16T09:55:07.878Z,19.35
2023-04-16T09:57:38.939Z,22.30
2023-04-16T10:00:10.471Z,23.08
2023-04-16T10:02:42.004Z,21.80
2023-04-16T10:05:09.647Z,20.75
2023-04-16T10:07:37.720Z,23.67
2023-04-16T10:12:32.889Z,20.90
2023-04-16T10:17:26.794Z,21.47
2023-04-16T10:19:54.745Z,26.63
2023-04-16T10:22:21.437Z,25.02
2023-04-16T10:24:48.827Z,24.77
2023-04-16T10:27:17.253Z,26.38
2023-04-16T10:29:44.671Z,25.58
2023-04-16T10:32:12.198Z,26.83
2023-04-16T10:34:39.163Z,24.50
2023-04-16T10:37:05.863Z,24.55
2023-04-16T10:39:37.565Z,22.75
2023-04-16T10:42:22.370Z,26.92
2023-04-16T10:44:49.063Z,29.55
2023-04-16T10:47:16.141Z,30.30
2023-04-16T10:49:43.937Z,27.77
2023-04-16T10:54:41.280Z,24.48
2023-04-16T10:57:17.821Z,21.73
2023-04-16T10:59:44.829Z,25.95
2023-04-16T11:02:17.660Z,29.80
2023-04-16T11:04:46.471Z,20.60
2023-04-16T11:07:19.371Z,26.35
2023-04-16T11:09:50.412Z,23.80
2023-04-16T11:12:34.710Z,27.38
2023-04-16T11:15:10.052Z,25.00
2023-04-16T11:17:40.885Z,28.52
2023-04-16T11:20:18.911Z,26.48
2023-04-16T11:22:50.952Z,28.05
2023-04-16T11:25:25.231Z,26.63
2023-04-16T11:27:52.903Z,30.00
2023-04-16T11:30:31.955Z,24.50
2023-04-16T11:32:58.721Z,27.35
2023-04-16T11:35:25.499Z,25.30
2023-04-16T11:37:57.088Z,27.95
2023-04-16T11:40:24.504Z,31.50
2023-04-16T11:42:51.224Z,29.88
2023-04-16T11:45:19.442Z,26.48
2023-04-16T11:47:55.489Z,28.00
2023-04-16T11:50:27.688Z,28.38
2023-04-16T11:53:03.411Z,25.05
2023-04-16T11:55:30.314Z,31.23
2023-04-16T11:57:57.082Z,33.65
2023-04-16T12:00:24.581Z,26.17
2023-04-16T12:05:31.923Z,21.50
2023-04-16T12:07:59.949Z,27.30
2023-04-16T12:12:54.209Z,22.98
2023-04-16T12:15:21.000Z,23.42
2023-04-16T12:17:48.806Z,24.80
2023-04-16T12:20:16.229Z,24.45
2023-04-16T12:22:47.930Z,19.95
2023-04-16T12:25:17.001Z,25.27
2023-04-16T12:27:50.714Z,25.55
2023-04-16T12:30:22.416Z,28.92
2023-04-16T12:32:52.374Z,30.20
2023-04-16T12:35:41.889Z,30.70
2023-04-16T12:38:08.580Z,25.90
2023-04-16T12:40:36.146Z,26.50
2023-04-16T12:43:02.999Z,26.30
2023-04-16T12:45:29.793Z,23.27
2023-04-16T12:47:57.486Z,19.73
2023-04-16T12:50:24.296Z,22.77
2023-04-16T12:52:51.069Z,23.92
2023-04-16T12:55:17.869Z,22.73
2023-04-16T12:57:44.758Z,26.90
2023-04-16T13:00:12.641Z,25.63
2023-04-16T13:05:07.983Z,21.65
2023-04-16T13:07:34.800Z,26.13
2023-04-16T13:10:01.500Z,26.05
2023-04-16T13:12:28.510Z,22.48
2023-04-16T13:14:55.960Z,21.80
2023-04-16T13:17:22.754Z,28.77
2023-04-16T13:19:49.573Z,23.58
2023-04-16T13:22:16.462Z,23.98
2023-04-16T13:24:43.185Z,29.58
2023-04-16T13:27:09.879Z,23.95
2023-04-16T13:29:36.738Z,21.05
2023-04-16T13:32:04.247Z,25.45
2023-04-16T13:34:32.735Z,21.83
2023-04-16T13:36:59.425Z,24.10
2023-04-16T13:39:26.191Z,26.80
2023-04-16T13:41:52.881Z,24.98
2023-04-16T13:44:19.651Z,21.30
2023-04-16T13:46:47.885Z,23.73
2023-04-16T13:49:14.982Z,22.98
2023-04-16T13:51:44.882Z,25.77
2023-04-16T13:54:11.693Z,28.55
2023-04-16T13:56:38.587Z,23.33
2023-04-16T13:59:05.386Z,23.98
2023-04-16T14:01:32.220Z,21.92
2023-04-16T14:04:00.344Z,26.23
2023-04-16T14:06:27.973Z,27.95
2023-04-16T14:08:54.657Z,27.85
2023-04-16T14:11:21.375Z,26.50
2023-04-16T14:13:48.059Z,30.40
2023-04-16T14:16:14.873Z,44.08
2023-04-16T14:18:42.489Z,33.42
2023-04-16T14:21:09.489Z,25.13
2023-04-16T14:23:36.258Z,26.70
2023-04-16T14:26:03.716Z,26.77
2023-04-16T14:28:30.488Z,28.92
2023-04-16T14:30:57.212Z,32.88
2023-04-16T14:33:23.950Z,25.55
2023-04-16T14:35:51.441Z,23.92
2023-04-16T14:38:18.230Z,22.83
2023-04-16T14:40:45.097Z,23.25
2023-04-16T14:43:11.831Z,24.40
2023-04-16T14:45:39.067Z,25.30
2023-04-16T14:48:06.315Z,19.80
2023-04-16T14:50:37.975Z,23.02
2023-04-16T14:53:05.623Z,27.17
2023-04-16T14:55:32.725Z,22.15
2023-04-16T14:57:59.943Z,22.77
2023-04-16T15:00:27.577Z,27.42
2023-04-16T15:02:55.389Z,23.20
2023-04-16T15:05:22.325Z,26.58
2023-04-16T15:07:49.061Z,21.75
2023-04-16T15:10:15.789Z,22.75
2023-04-16T15:12:42.513Z,21.88
2023-04-16T15:15:09.787Z,28.92
2023-04-16T15:17:36.613Z,28.58
2023-04-16T15:20:08.160Z,19.08
2023-04-16T15:22:35.264Z,23.15
2023-04-16T15:25:02.273Z,20.35
2023-04-16T15:27:28.910Z,26.05
2023-04-16T15:29:55.742Z,34.70
2023-04-16T15:32:22.801Z,23.92
2023-04-16T15:34:49.515Z,50.10
2023-04-16T15:37:16.514Z,44.97
2023-04-16T15:39:43.266Z,32.07
2023-04-16T15:42:11.372Z,38.75
2023-04-16T15:44:38.028Z,41.83
2023-04-16T15:47:06.375Z,47.33
2023-04-16T15:49:33.089Z,43.33
2023-04-16T15:52:00.520Z,29.38
2023-04-16T15:54:27.259Z,30.23
2023-04-16T15:56:53.976Z,34.25
2023-04-16T15:59:20.650Z,25.73
2023-04-16T16:01:47.404Z,30.23
2023-04-16T16:04:14.335Z,44.60
2023-04-16T16:06:41.875Z,47.30
2023-04-16T16:09:09.061Z,35.42
2023-04-16T16:11:37.528Z,28.52
2023-04-16T16:14:04.251Z,27.20
2023-04-16T16:16:31.733Z,32.88
2023-04-16T16:18:58.443Z,26.50
2023-04-16T16:21:25.113Z,31.02
2023-04-16T16:23:51.793Z,36.25
2023-04-16T16:26:18.686Z,44.85
2023-04-16T16:28:45.951Z,26.02
2023-04-16T16:31:12.738Z,34.15
2023-04-16T16:33:40.585Z,26.10
2023-04-16T16:36:11.622Z,25.65
2023-04-16T16:38:40.171Z,30.85
2023-04-16T16:41:07.446Z,47.40
2023-04-16T16:43:36.324Z,35.17
2023-04-16T16:46:03.120Z,22.95
2023-04-16T16:48:29.790Z,20.88
2023-04-16T16:50:56.510Z,24.55
2023-04-16T16:53:23.195Z,21.38
2023-04-16T16:55:49.993Z,23.92
2023-04-16T16:58:16.694Z,19.55
2023-04-16T17:00:43.426Z,22.48
2023-04-16T17:03:10.433Z,22.55
2023-04-16T17:05:37.217Z,18.00
2023-04-16T17:08:04.043Z,20.15
2023-04-16T17:10:32.202Z,19.27
2023-04-16T17:12:58.907Z,18.17
2023-04-16T17:15:25.883Z,26.85
2023-04-16T17:17:52.613Z,23.50
2023-04-16T17:20:19.961Z,23.88
2023-04-16T17:22:46.741Z,28.63
2023-04-16T17:25:13.871Z,21.63
2023-04-16T17:27:40.800Z,24.73
2023-04-16T17:30:08.228Z,30.05
2023-04-16T17:32:35.046Z,27.40
2023-04-16T17:35:04.335Z,23.52
2023-04-16T17:37:31.477Z,35.92
2023-04-16T17:39:58.158Z,39.67
2023-04-16T17:42:24.954Z,42.03
2023-04-16T17:44:51.911Z,29.52
2023-04-16T17:47:18.610Z,26.92
2023-04-16T17:49:45.386Z,31.73
2023-04-16T17:52:12.080Z,27.02
2023-04-16T17:54:38.722Z,24.02
2023-04-16T17:57:05.455Z,34.65
2023-04-16T17:59:32.152Z,29.08
2023-04-16T18:01:58.973Z,21.77
2023-04-16T18:04:25.922Z,22.23
2023-04-16T18:06:52.712Z,20.85
2023-04-16T18:09:19.646Z,20.70
2023-04-16T18:11:46.375Z,22.83
2023-04-16T18:14:19.900Z,27.58
2023-04-16T18:16:47.982Z,19.90
2023-04-16T18:21:43.144Z,24.60
2023-04-16T18:24:10.433Z,18.27
2023-04-16T18:26:37.767Z,22.52
2023-04-16T18:29:05.503Z,27.38
2023-04-16T18:31:32.408Z,22.45
2023-04-16T18:33:59.286Z,27.02
2023-04-16T18:36:27.224Z,27.00
2023-04-16T18:39:00.882Z,35.70
2023-04-16T18:41:29.000Z,26.52
2023-04-16T18:43:55.819Z,27.70
2023-04-16T18:46:22.672Z,24.45
2023-04-16T18:48:49.404Z,27.73
2023-04-16T18:51:16.710Z,24.75
2023-04-16T18:53:45.604Z,23.13
2023-04-16T18:56:12.886Z,24.92
2023-04-16T18:58:39.637Z,20.20
2023-04-16T19:01:11.029Z,24.73
2023-04-16T19:03:38.456Z,23.27
2023-04-16T19:06:06.122Z,25.77
2023-04-16T19:08:33.119Z,28.67
2023-04-16T19:11:00.104Z,24.45
2023-04-16T19:13:26.808Z,29.63
2023-04-16T19:16:00.957Z,36.03
2023-04-16T19:18:28.052Z,29.60
2023-04-16T19:21:01.264Z,40.43
2023-04-16T19:23:28.523Z,30.13
2023-04-16T19:25:58.613Z,36.65
2023-04-16T19:28:25.597Z,34.03
2023-04-16T19:30:53.555Z,27.92
2023-04-16T19:35:47.273Z,24.52
2023-04-16T19:38:14.102Z,29.30
2023-04-16T19:40:43.910Z,22.58
2023-04-16T19:43:10.696Z,24.80
2023-04-16T19:45:45.354Z,24.95
2023-04-16T19:48:12.808Z,25.50
2023-04-16T19:50:43.010Z,25.55
2023-04-16T19:53:10.876Z,27.30
2023-04-16T19:55:41.335Z,29.45
2023-04-16T19:58:08.426Z,28.48
2023-04-16T20:00:38.229Z,27.75
2023-04-16T20:03:05.417Z,30.08
2023-04-16T20:05:32.275Z,31.50
2023-04-16T20:07:59.131Z,30.88
2023-04-16T20:10:26.567Z,29.95
2023-04-16T20:12:53.383Z,30.48
2023-04-16T20:15:20.278Z,24.88
2023-04-16T20:17:47.101Z,27.15
2023-04-16T20:20:15.802Z,28.27
2023-04-16T20:22:43.466Z,25.50
2023-04-16T20:25:10.305Z,26.65
2023-04-16T20:27:37.096Z,28.90
2023-04-16T20:30:05.478Z,43.88
2023-04-16T20:32:32.374Z,33.92
2023-04-16T20:34:59.719Z,40.67
2023-04-16T20:37:28.776Z,35.40
2023-04-16T20:39:56.295Z,37.80
2023-04-16T20:42:26.159Z,40.35
2023-04-16T20:44:56.281Z,40.05
2023-04-16T20:47:23.903Z,41.15
2023-04-16T20:49:52.660Z,35.88
2023-04-16T20:52:19.594Z,41.03
2023-04-16T20:54:47.182Z,45.88
2023-04-16T20:57:14.023Z,40.63
2023-04-16T20:59:40.948Z,37.75
2023-04-16T21:02:07.983Z,37.53
2023-04-16T21:04:34.822Z,36.57
2023-04-16T21:07:03.977Z,40.42
2023-04-16T21:09:31.394Z,37.78
2023-04-16T21:11:58.100Z,32.97
2023-04-16T21:14:24.871Z,39.33
2023-04-16T21:16:51.509Z,41.47
2023-04-16T21:19:18.292Z,38.10
2023-04-16T21:21:45.020Z,37.22
2023-04-16T21:24:11.647Z,41.47
2023-04-16T21:26:38.300Z,44.45
2023-04-16T21:29:05.023Z,44.03
2023-04-16T21:31:31.803Z,43.60
2023-04-16T21:33:58.603Z,48.17
2023-04-16T21:36:27.490Z,43.72
2023-04-16T21:38:54.184Z,39.50
2023-04-16T21:41:21.161Z,37.08
2023-04-16T21:43:47.851Z,48.60
2023-04-16T21:46:14.704Z,47.22
2023-04-16T21:48:41.447Z,44.35
2023-04-16T21:51:08.659Z,46.33
2023-04-16T21:53:35.416Z,47.38
2023-04-16T21:56:02.431Z,38.95
2023-04-16T21:58:29.115Z,44.63
2023-04-16T22:00:55.956Z,43.92
2023-04-16T22:03:30.469Z,46.75
2023-04-16T22:06:01.028Z,46.45
2023-04-16T22:08:29.232Z,48.10
2023-04-16T22:13:27.212Z,44.08
2023-04-16T22:15:55.102Z,48.38
2023-04-16T22:18:25.632Z,44.67
2023-04-16T22:20:56.226Z,45.75
2023-04-16T22:23:26.204Z,50.03
2023-04-16T22:25:54.973Z,50.33
2023-04-16T22:28:21.912Z,52.40
2023-04-16T22:30:48.856Z,50.25
2023-04-16T22:33:15.694Z,51.15
2023-04-16T22:35:42.511Z,49.92
2023-04-16T22:38:10.080Z,45.30
2023-04-16T22:40:36.844Z,46.35
2023-04-16T22:43:04.350Z,46.58
2023-04-16T22:45:31.134Z,44.88
2023-04-16T22:47:57.868Z,46.63
2023-04-16T22:50:24.637Z,45.58
2023-04-16T22:52:51.303Z,47.25
2023-04-16T22:55:18.231Z,54.47
2023-04-16T22:57:44.921Z,46.63
2023-04-16T23:00:15.995Z,46.55
2023-04-16T23:02:43.237Z,50.15
2023-04-16T23:05:10.392Z,47.65
2023-04-16T23:07:37.171Z,50.93
2023-04-16T23:10:04.203Z,49.70
2023-04-16T23:12:30.945Z,38.60
2023-04-16T23:14:58.339Z,45.63
2023-04-16T23:17:25.121Z,41.33
2023-04-16T23:19:51.893Z,45.08
2023-04-16T23:22:18.590Z,46.47
2023-04-16T23:24:45.764Z,43.88
2023-04-16T23:27:12.499Z,46.63
2023-04-16T23:29:39.252Z,44.67
2023-04-16T23:32:06.018Z,48.60
2023-04-16T23:34:32.698Z,43.40
2023-04-16T23:36:59.376Z,49.72
2023-04-16T23:39:26.206Z,45.72
2023-04-16T23:41:52.841Z,44.38
2023-04-16T23:44:19.577Z,44.28
2023-04-16T23:46:46.370Z,43.80
2023-04-16T23:49:13.249Z,41.35
2023-04-16T23:51:40.135Z,51.40
2023-04-16T23:54:06.854Z,50.38
2023-04-16T23:56:33.529Z,48.97
2023-04-16T23:59:00.284Z,48.30
